David Allan — VNAT — position and weather

sailwx.info

Track history (hours):
 
Tides and Currents Weather Stations Pressure Air Temp Water Temp Dewpoint Dewpoint Depression Visibility Wind Speed Wind Dir Waves Ship Positions

David Allan

Last reported at 2018-Feb-23 05:00 UTC. Time now 2018-Feb-23 05:00 UTC.
Position S 32°56' E 151°49'.

Length 70 m.

Type: Dredging. MMSI: 503541000.

Date/timePositionNaut miles runAvg speedWind from/ knotsBaromVisibWave heightAir tempDewpointWater temp
2018-Feb-23 05:00S 32°56' E 151°49'1 2.6
2018-Feb-23 04:30S 32°55' E 151°47'2 4.6
2018-Feb-23 03:59S 32°53' E 151°46'2 3.3
2018-Feb-23 03:30S 32°55' E 151°46'2 4.7
2018-Feb-23 03:00S 32°56' E 151°49'1 2.1
2018-Feb-23 02:30S 32°55' E 151°48'3 4.4
2018-Feb-23 01:56S 32°53' E 151°46'2 3.9
2018-Feb-23 01:30S 32°55' E 151°46'3 5.2
2018-Feb-23 01:00S 32°56' E 151°49'3 6.0
2018-Feb-23 00:30S 32°54' E 151°46'1 1.2
2018-Feb-22 23:57S 32°54' E 151°46'3 6.5
2018-Feb-22 23:30S 32°55' E 151°49'1 2.7
2018-Feb-22 22:59S 32°55' E 151°47'3 4.9
2018-Feb-22 22:28S 32°53' E 151°45'1 1.9
2018-Feb-22 21:55S 32°54' E 151°46'1 3.3
2018-Feb-22 21:30S 32°55' E 151°47'1 3.0
2018-Feb-22 21:00S 32°55' E 151°49'2 4.3
2018-Feb-22 20:29S 32°54' E 151°46'0 0.0
2018-Feb-22 19:59S 32°54' E 151°46'0 0.0
2018-Feb-22 19:29S 32°54' E 151°46'0 0.0
2018-Feb-22 18:59S 32°54' E 151°46'0 0.0
2018-Feb-22 18:29S 32°54' E 151°46'0 0.0
2018-Feb-22 17:59S 32°54' E 151°46'0 0.0
2018-Feb-22 17:29S 32°54' E 151°46'0 0.0
2018-Feb-22 16:59S 32°54' E 151°46'0 0.0
2018-Feb-22 16:29S 32°54' E 151°46'0 0.0
2018-Feb-22 15:59S 32°54' E 151°46'0 0.0
2018-Feb-22 15:29S 32°54' E 151°46'0 0.0
2018-Feb-22 14:59S 32°54' E 151°46'0 0.0
2018-Feb-22 14:29S 32°54' E 151°46'0 0.0
2018-Feb-22 13:59S 32°54' E 151°46'0 0.0
2018-Feb-22 13:29S 32°54' E 151°46'0 0.0
2018-Feb-22 12:59S 32°54' E 151°46'0 0.0
2018-Feb-22 12:29S 32°54' E 151°46'0 0.0
2018-Feb-22 11:59S 32°54' E 151°46'0 0.0
2018-Feb-22 11:29S 32°54' E 151°46'0 0.0
2018-Feb-22 10:59S 32°54' E 151°46'0 0.0
2018-Feb-22 10:29S 32°54' E 151°46'0 0.0
2018-Feb-22 09:59S 32°54' E 151°46'0 0.0
2018-Feb-22 09:20S 32°54' E 151°46'0 0.0
2018-Feb-22 08:59S 32°54' E 151°46'0 0.0
2018-Feb-22 08:29S 32°54' E 151°46'0 0.0
2018-Feb-22 07:59S 32°54' E 151°46'0 0.0
2018-Feb-22 07:23S 32°54' E 151°46'0 0.0
2018-Feb-22 06:59S 32°54' E 151°46'0 0.0
2018-Feb-22 06:29S 32°54' E 151°46'1 1.7
2018-Feb-22 05:59S 32°53' E 151°46'2 4.0
2018-Feb-22 05:29S 32°55' E 151°47'1 2.8
2018-Feb-22 05:00S 32°55' E 151°48'0 0.5
2018-Feb-22 04:30S 32°55' E 151°48'3 4.5
2018-Feb-22 03:53S 32°53' E 151°46'1 2.5
2018-Feb-22 03:30S 32°54' E 151°46'3 6.6
2018-Feb-22 03:00S 32°56' E 151°49'2 3.6
2018-Feb-22 02:29S 32°55' E 151°47'2 3.6
2018-Feb-22 02:00S 32°56' E 151°49'3 6.0
2018-Feb-22 01:30S 32°54' E 151°46'0 0.6
2018-Feb-22 00:52S 32°54' E 151°46'2 6.9
2018-Feb-22 00:30S 32°55' E 151°49'1 1.8
2018-Feb-22 00:00S 32°55' E 151°48'2 4.6
2018-Feb-21 23:29S 32°53' E 151°46'1 2.2
2018-Feb-21 22:52S 32°55' E 151°46'2 5.6
2018-Feb-21 22:30S 32°55' E 151°49'1 1.6
2018-Feb-21 22:00S 32°55' E 151°48'2 4.8
2018-Feb-21 21:29S 32°53' E 151°46'2 4.4
2018-Feb-21 21:00S 32°55' E 151°47'2 4.3
2018-Feb-21 20:30S 32°56' E 151°49'3 5.6
2018-Feb-21 20:00S 32°54' E 151°46'0 0.4
2018-Feb-21 19:29S 32°54' E 151°46'0 0.0
2018-Feb-21 18:59S 32°54' E 151°46'0 0.0
2018-Feb-21 18:29S 32°54' E 151°46'0 0.0
2018-Feb-21 17:59S 32°54' E 151°46'0 0.0
2018-Feb-21 17:29S 32°54' E 151°46'0 0.0
2018-Feb-21 16:59S 32°54' E 151°46'0 0.0
2018-Feb-21 16:29S 32°54' E 151°46'0 0.0
2018-Feb-21 15:59S 32°54' E 151°46'0 0.0
2018-Feb-21 15:29S 32°54' E 151°46'0 0.0
2018-Feb-21 14:59S 32°54' E 151°46'0 0.0
2018-Feb-21 14:29S 32°54' E 151°46'0 0.0
2018-Feb-21 13:59S 32°54' E 151°46'0 0.0
2018-Feb-21 13:26S 32°54' E 151°46'0 0.0
2018-Feb-21 12:59S 32°54' E 151°46'0 0.0
2018-Feb-21 12:29S 32°54' E 151°46'0 0.0
2018-Feb-21 11:59S 32°54' E 151°46'0 0.0
2018-Feb-21 11:29S 32°54' E 151°46'0 0.0
2018-Feb-21 10:59S 32°54' E 151°46'0 0.0
2018-Feb-21 10:29S 32°54' E 151°46'0 0.0
2018-Feb-21 09:59S 32°54' E 151°46'0 0.0
2018-Feb-21 09:29S 32°54' E 151°46'0 0.0
2018-Feb-21 08:59S 32°54' E 151°46'0 0.0
2018-Feb-21 08:29S 32°54' E 151°46'0 0.0
2018-Feb-21 07:56S 32°54' E 151°46'0 0.0
2018-Feb-21 07:26S 32°54' E 151°46'0 0.0
2018-Feb-21 06:59S 32°54' E 151°46'0 0.0
2018-Feb-21 06:29S 32°54' E 151°46'1 1.6
2018-Feb-21 06:00S 32°55' E 151°46'2 5.0
2018-Feb-21 05:30S 32°56' E 151°49'2 4.9
2018-Feb-21 05:00S 32°55' E 151°46'2 3.8
2018-Feb-21 04:27S 32°53' E 151°45'2 3.9
2018-Feb-21 04:00S 32°55' E 151°46'2 4.1
2018-Feb-21 03:30S 32°55' E 151°49'1 2.4
2018-Feb-21 02:58S 32°55' E 151°47'2 3.3
2018-Feb-21 02:30S 32°54' E 151°46'1 2.5
2018-Feb-21 02:00S 32°53' E 151°45'3 6.2
2018-Feb-21 01:30S 32°55' E 151°48'1 2.6
2018-Feb-21 01:00S 32°56' E 151°49'2 4.0
2018-Feb-21 00:30S 32°55' E 151°47'3 5.1
2018-Feb-20 23:59S 32°53' E 151°45'1 1.9
2018-Feb-20 23:25S 32°54' E 151°46'0 0.0
2018-Feb-20 22:58S 32°54' E 151°46'0 0.0
2018-Feb-20 22:28S 32°54' E 151°46'1 2.7
2018-Feb-20 22:00S 32°53' E 151°45'3 6.4
2018-Feb-20 21:29S 32°55' E 151°48'0 0.7
2018-Feb-20 21:00S 32°55' E 151°48'3 5.4
2018-Feb-20 20:29S 32°53' E 151°45'0 0.3
2018-Feb-20 19:59S 32°53' E 151°46'1 2.2
2018-Feb-20 19:30S 32°54' E 151°46'0 0.0
2018-Feb-20 19:00S 32°54' E 151°46'0 0.0
2018-Feb-20 18:27S 32°54' E 151°46'0 0.0
2018-Feb-20 18:00S 32°54' E 151°46'0 0.0
2018-Feb-20 17:30S 32°54' E 151°46'0 0.0
2018-Feb-20 17:00S 32°54' E 151°46'0 0.0
2018-Feb-20 16:30S 32°54' E 151°46'0 0.0
2018-Feb-20 16:00S 32°54' E 151°46'0 0.0
2018-Feb-20 15:27S 32°54' E 151°46'0 0.0
2018-Feb-20 15:00S 32°54' E 151°46'0 0.0
2018-Feb-20 14:30S 32°54' E 151°46'0 0.0
2018-Feb-20 14:00S 32°54' E 151°46'0 0.0
2018-Feb-20 13:30S 32°54' E 151°46'0 0.0
2018-Feb-20 13:00S 32°54' E 151°46'0 0.0
2018-Feb-20 12:27S 32°54' E 151°46'0 0.0
2018-Feb-20 12:00S 32°54' E 151°46'0 0.0
2018-Feb-20 11:30S 32°54' E 151°46'0 0.0
2018-Feb-20 10:57S 32°54' E 151°46'0 0.0
2018-Feb-20 10:27S 32°54' E 151°46'0 0.0
2018-Feb-20 10:00S 32°54' E 151°46'0 0.0
2018-Feb-20 09:21S 32°54' E 151°46'0 0.0
2018-Feb-20 09:00S 32°54' E 151°46'0 0.0
2018-Feb-20 08:27S 32°54' E 151°46'0 0.0
2018-Feb-20 07:57S 32°54' E 151°46'0 0.0
2018-Feb-20 07:27S 32°54' E 151°46'0 0.0
2018-Feb-20 07:00S 32°54' E 151°46'0 0.0
2018-Feb-20 06:30S 32°54' E 151°46'0 0.5
2018-Feb-20 06:00S 32°54' E 151°46'1 0.1
2018-Feb-19 21:43S 32°53' E 151°46'1 2.3
2018-Feb-19 21:23S 32°54' E 151°46'0 0.0
2018-Feb-19 20:59S 32°54' E 151°46'0 0.0
2018-Feb-19 20:29S 32°54' E 151°46'0 0.0
2018-Feb-19 19:56S 32°54' E 151°46'0 0.0
2018-Feb-19 19:29S 32°54' E 151°46'0 0.0
2018-Feb-19 18:59S 32°54' E 151°46'0 0.0
2018-Feb-19 18:29S 32°54' E 151°46'0 0.0
2018-Feb-19 17:59S 32°54' E 151°46'0 0.0
2018-Feb-19 17:26S 32°54' E 151°46'0 0.0
2018-Feb-19 16:59S 32°54' E 151°46'0 0.0
2018-Feb-19 16:29S 32°54' E 151°46'0 0.0
2018-Feb-19 15:59S 32°54' E 151°46'0 0.0
2018-Feb-19 15:23S 32°54' E 151°46'0 0.0
2018-Feb-19 14:59S 32°54' E 151°46'0 0.0
2018-Feb-19 14:29S 32°54' E 151°46'0 0.0
2018-Feb-19 13:59S 32°54' E 151°46'0 0.0
2018-Feb-19 13:29S 32°54' E 151°46'0 0.0
2018-Feb-19 12:59S 32°54' E 151°46'0 0.0
2018-Feb-19 12:26S 32°54' E 151°46'0 0.0
2018-Feb-19 11:59S 32°54' E 151°46'0 0.0
2018-Feb-19 11:29S 32°54' E 151°46'0 0.0
2018-Feb-19 10:56S 32°54' E 151°46'0 0.0
2018-Feb-19 10:29S 32°54' E 151°46'0 0.0
2018-Feb-19 09:59S 32°54' E 151°46'0 0.0
2018-Feb-19 09:26S 32°54' E 151°46'0 0.0
2018-Feb-19 08:59S 32°54' E 151°46'0 0.0
2018-Feb-19 08:23S 32°54' E 151°46'0 0.0
2018-Feb-19 07:59S 32°54' E 151°46'0 0.0
2018-Feb-19 07:23S 32°54' E 151°46'0 0.0
2018-Feb-19 06:59S 32°54' E 151°46'0 0.0
2018-Feb-19 06:29S 32°54' E 151°46'2 4.7
2018-Feb-19 06:00S 32°55' E 151°49'1 2.2
2018-Feb-19 05:30S 32°55' E 151°47'3 3.4
2018-Feb-19 04:39S 32°53' E 151°45'1 7.8
2018-Feb-19 04:30S 32°54' E 151°46'3 6.4
2018-Feb-19 04:00S 32°56' E 151°49'2 4.8
2018-Feb-19 03:30S 32°55' E 151°47'2 4.5
2018-Feb-19 03:00S 32°53' E 151°45'0 0.1
2018-Feb-19 02:14S 32°53' E 151°45'2 7.4
2018-Feb-19 02:00S 32°55' E 151°46'3 6.1
2018-Feb-19 01:30S 32°56' E 151°49'3 5.5
2018-Feb-19 01:00S 32°55' E 151°47'1 1.1
2018-Feb-18 23:44S 32°54' E 151°46'1 6.3
2018-Feb-18 23:30S 32°55' E 151°46'3 5.2
2018-Feb-18 23:01S 32°56' E 151°49'2 4.9
2018-Feb-18 22:31S 32°55' E 151°47'2 4.5
2018-Feb-18 22:00S 32°53' E 151°45'3 5.6
2018-Feb-18 21:30S 32°55' E 151°47'2 4.4
2018-Feb-18 21:00S 32°56' E 151°49'3 6.4
2018-Feb-18 20:30S 32°54' E 151°46'1 1.4
2018-Feb-18 19:37S 32°53' E 151°46'1 6.6
2018-Feb-18 19:29S 32°54' E 151°46'0 0.1
2018-Feb-18 18:59S 32°54' E 151°46'0 0.0
2018-Feb-18 18:29S 32°54' E 151°46'0 0.0
2018-Feb-18 17:59S 32°54' E 151°46'0 0.0
2018-Feb-18 17:29S 32°54' E 151°46'0 0.0
2018-Feb-18 16:59S 32°54' E 151°46'0 0.0
2018-Feb-18 16:29S 32°54' E 151°46'0 0.0
2018-Feb-18 15:50S 32°54' E 151°46'0 0.0
2018-Feb-18 15:26S 32°54' E 151°46'0 0.0
2018-Feb-18 14:59S 32°54' E 151°46'0 0.0
2018-Feb-18 14:29S 32°54' E 151°46'0 0.0
2018-Feb-18 13:56S 32°54' E 151°46'0 0.0
2018-Feb-18 13:29S 32°54' E 151°46'0 0.0
2018-Feb-18 12:50S 32°54' E 151°46'0 0.0
2018-Feb-18 12:29S 32°54' E 151°46'0 0.0
2018-Feb-18 11:59S 32°54' E 151°46'0 0.0
2018-Feb-18 11:26S 32°54' E 151°46'0 0.0
2018-Feb-18 10:59S 32°54' E 151°46'0 0.0
2018-Feb-18 10:29S 32°54' E 151°46'0 0.0
2018-Feb-18 09:56S 32°54' E 151°46'0 0.0
2018-Feb-18 09:29S 32°54' E 151°46'0 0.0
2018-Feb-18 08:59S 32°54' E 151°46'0 0.0
2018-Feb-18 08:29S 32°54' E 151°46'0 0.0
2018-Feb-18 07:59S 32°54' E 151°46'0 0.0
2018-Feb-18 07:29S 32°54' E 151°46'0 0.0
2018-Feb-18 06:59S 32°54' E 151°46'1 2.8
2018-Feb-18 06:30S 32°55' E 151°47'2 3.0
2018-Feb-18 06:00S 32°55' E 151°49'3 5.9
2018-Feb-18 05:30S 32°53' E 151°46'0 0.3
2018-Feb-18 05:00S 32°53' E 151°46'2 3.9
2018-Feb-18 04:30S 32°55' E 151°48'2 3.9
2018-Feb-18 04:00S 32°56' E 151°49'3 6.2
2018-Feb-18 03:30S 32°54' E 151°46'2 3.0
2018-Feb-18 02:59S 32°53' E 151°45'3 6.1
2018-Feb-18 02:30S 32°55' E 151°48'0 0.8
2018-Feb-18 02:00S 32°55' E 151°48'3 4.6
2018-Feb-18 01:22S 32°53' E 151°45'1 2.3
2018-Feb-18 01:00S 32°54' E 151°46'3 6.4
2018-Feb-18 00:30S 32°56' E 151°49'2 3.5
2018-Feb-18 00:00S 32°55' E 151°47'3 5.4
2018-Feb-17 23:30S 32°53' E 151°45'1 1.6
2018-Feb-17 22:52S 32°54' E 151°46'2 6.2
2018-Feb-17 22:30S 32°55' E 151°48'1 1.1
2018-Feb-17 22:00S 32°55' E 151°48'3 4.0
2018-Feb-17 21:18S 32°53' E 151°45'2 6.9
2018-Feb-17 21:01S 32°55' E 151°46'2 4.8
2018-Feb-17 20:31S 32°56' E 151°49'3 5.4
2018-Feb-17 19:58S 32°54' E 151°46'0 0.0
2018-Feb-17 19:28S 32°54' E 151°46'0 0.0
2018-Feb-17 18:58S 32°54' E 151°46'0 0.0
2018-Feb-17 18:28S 32°54' E 151°46'0 0.0
2018-Feb-17 17:58S 32°54' E 151°46'0 0.0
2018-Feb-17 17:28S 32°54' E 151°46'0 0.0
2018-Feb-17 16:58S 32°54' E 151°46'0 0.0
2018-Feb-17 16:28S 32°54' E 151°46'0 0.0
2018-Feb-17 15:58S 32°54' E 151°46'0 0.0
2018-Feb-17 15:28S 32°54' E 151°46'0 0.0
2018-Feb-17 14:58S 32°54' E 151°46'0 0.0
2018-Feb-17 14:28S 32°54' E 151°46'0 0.0
2018-Feb-17 13:58S 32°54' E 151°46'0 0.0
2018-Feb-17 13:28S 32°54' E 151°46'0 0.0
2018-Feb-17 12:58S 32°54' E 151°46'0 0.0
2018-Feb-17 12:28S 32°54' E 151°46'0 0.0
2018-Feb-17 11:58S 32°54' E 151°46'0 0.0
2018-Feb-17 11:28S 32°54' E 151°46'0 0.0
2018-Feb-17 10:58S 32°54' E 151°46'0 0.0
2018-Feb-17 10:28S 32°54' E 151°46'0 0.0
2018-Feb-17 09:58S 32°54' E 151°46'0 0.0
2018-Feb-17 09:28S 32°54' E 151°46'0 0.0
2018-Feb-17 08:58S 32°54' E 151°46'0 0.0
2018-Feb-17 08:28S 32°54' E 151°46'0 0.0
2018-Feb-17 07:58S 32°54' E 151°46'0 0.0
2018-Feb-17 07:28S 32°54' E 151°46'0 0.0
2018-Feb-17 06:58S 32°54' E 151°46'0 0.0
2018-Feb-17 06:28S 32°54' E 151°46'0 1.0
2018-Feb-17 06:00S 32°54' E 151°46'1 1.6
2018-Feb-17 05:26S 32°53' E 151°45'1 2.7
2018-Feb-17 04:59S 32°54' E 151°46'3 5.5
2018-Feb-17 04:30S 32°56' E 151°49'1 1.7
2018-Feb-17 04:00S 32°55' E 151°48'3 5.5
2018-Feb-17 03:29S 32°53' E 151°45'1 2.5
2018-Feb-17 03:00S 32°54' E 151°46'3 6.1
2018-Feb-17 02:30S 32°56' E 151°49'2 4.7
2018-Feb-17 02:00S 32°55' E 151°47'2 3.9
2018-Feb-17 01:26S 32°53' E 151°45'2 4.1
2018-Feb-17 01:00S 32°55' E 151°46'3 5.9
2018-Feb-17 00:30S 32°56' E 151°49'3 5.7
2018-Feb-17 00:00S 32°55' E 151°46'1 2.7
2018-Feb-16 23:30S 32°53' E 151°46'1 1.1
2018-Feb-16 22:59S 32°54' E 151°46'3 6.3
2018-Feb-16 22:31S 32°56' E 151°49'2 4.3
2018-Feb-16 22:01S 32°55' E 151°47'1 1.2
2018-Feb-16 21:28S 32°55' E 151°47'2 3.4
2018-Feb-16 21:00S 32°56' E 151°49'3 5.4
2018-Feb-16 20:30S 32°54' E 151°46'1 2.8
2018-Feb-16 20:00S 32°53' E 151°45'1 2.6
2018-Feb-16 19:30S 32°54' E 151°46'0 0.0
2018-Feb-16 18:54S 32°54' E 151°46'0 0.0
2018-Feb-16 18:27S 32°54' E 151°46'0 0.0
2018-Feb-16 18:00S 32°54' E 151°46'0 0.0
2018-Feb-16 17:24S 32°54' E 151°46'0 0.0
2018-Feb-16 16:57S 32°54' E 151°46'0 0.0
2018-Feb-16 16:24S 32°54' E 151°46'0 0.0
2018-Feb-16 16:00S 32°54' E 151°46'0 0.0
2018-Feb-16 15:30S 32°54' E 151°46'0 0.0
2018-Feb-16 15:00S 32°54' E 151°46'0 0.0
2018-Feb-16 14:30S 32°54' E 151°46'0 0.0
2018-Feb-16 14:00S 32°54' E 151°46'0 0.0
2018-Feb-16 13:30S 32°54' E 151°46'0 0.0
2018-Feb-16 13:00S 32°54' E 151°46'0 0.0
2018-Feb-16 12:30S 32°54' E 151°46'0 0.0
2018-Feb-16 12:00S 32°54' E 151°46'0 0.0
2018-Feb-16 11:30S 32°54' E 151°46'0 0.0
2018-Feb-16 11:00S 32°54' E 151°46'0 0.0
2018-Feb-16 10:24S 32°54' E 151°46'0 0.0
2018-Feb-16 10:00S 32°54' E 151°46'0 0.0
2018-Feb-16 09:27S 32°54' E 151°46'0 0.0
2018-Feb-16 08:42S 32°54' E 151°46'0 0.0
2018-Feb-16 08:30S 32°54' E 151°46'0 0.0
2018-Feb-16 08:00S 32°54' E 151°46'0 0.0
2018-Feb-16 07:30S 32°54' E 151°46'0 0.0
2018-Feb-16 07:00S 32°54' E 151°46'0 0.1
2018-Feb-16 06:30S 32°54' E 151°46'3 6.0
2018-Feb-16 06:00S 32°56' E 151°49'3 5.2
2018-Feb-16 05:30S 32°55' E 151°46'1 1.4
2018-Feb-16 04:51S 32°54' E 151°46'2 5.8
2018-Feb-16 04:30S 32°55' E 151°48'0 1.0
2018-Feb-16 04:00S 32°55' E 151°48'3 4.1
2018-Feb-16 03:23S 32°53' E 151°46'1 3.2
2018-Feb-16 02:59S 32°54' E 151°46'2 4.1
2018-Feb-16 02:29S 32°55' E 151°49'1 1.5
2018-Feb-16 02:00S 32°55' E 151°48'2 4.5
2018-Feb-16 01:30S 32°53' E 151°46'0 0.3
2018-Feb-16 01:01S 32°53' E 151°46'2 3.9
2018-Feb-16 00:30S 32°55' E 151°47'2 3.2
2018-Feb-16 00:00S 32°55' E 151°49'2 3.7
2018-Feb-15 23:20S 32°54' E 151°46'2 4.7
2018-Feb-15 23:00S 32°55' E 151°48'0 0.4
2018-Feb-15 22:29S 32°55' E 151°48'1 2.8
2018-Feb-15 21:58S 32°54' E 151°46'1 3.0
2018-Feb-15 21:30S 32°55' E 151°47'1 1.4
2018-Feb-15 21:00S 32°55' E 151°48'3 5.5
2018-Feb-15 20:30S 32°53' E 151°46'1 1.1
2018-Feb-15 20:00S 32°54' E 151°46'0 0.9
2018-Feb-15 19:28S 32°54' E 151°46'0 0.0
2018-Feb-15 18:58S 32°54' E 151°46'0 0.0
2018-Feb-15 18:28S 32°54' E 151°46'0 0.0
2018-Feb-15 17:58S 32°54' E 151°46'0 0.0
2018-Feb-15 17:28S 32°54' E 151°46'0 0.0
2018-Feb-15 16:58S 32°54' E 151°46'0 0.0
2018-Feb-15 16:28S 32°54' E 151°46'0 0.0
2018-Feb-15 15:58S 32°54' E 151°46'0 0.0
2018-Feb-15 15:28S 32°54' E 151°46'0 0.0
2018-Feb-15 14:58S 32°54' E 151°46'0 0.0
2018-Feb-15 14:28S 32°54' E 151°46'0 0.0
2018-Feb-15 13:58S 32°54' E 151°46'0 0.0
2018-Feb-15 13:28S 32°54' E 151°46'0 0.0
2018-Feb-15 12:55S 32°54' E 151°46'0 0.0
2018-Feb-15 12:28S 32°54' E 151°46'0 0.0
2018-Feb-15 11:52S 32°54' E 151°46'0 0.0
2018-Feb-15 11:28S 32°54' E 151°46'0 0.0
2018-Feb-15 10:58S 32°54' E 151°46'0 0.0
2018-Feb-15 10:25S 32°54' E 151°46'0 0.0
2018-Feb-15 09:58S 32°54' E 151°46'0 0.0
2018-Feb-15 09:28S 32°54' E 151°46'0 0.0
2018-Feb-15 08:58S 32°54' E 151°46'0 0.0
2018-Feb-15 08:28S 32°54' E 151°46'0 0.0
2018-Feb-15 07:58S 32°54' E 151°46'0 0.0
2018-Feb-15 07:28S 32°54' E 151°46'0 0.0
2018-Feb-15 06:58S 32°54' E 151°46'0 0.0
2018-Feb-15 06:29S 32°54' E 151°46'1 0.2
2018-Feb-15 01:23S 32°55' E 151°46'0 0.0
2018-Feb-14 20:53S 32°55' E 151°46'0 0.2
2018-Feb-14 20:30S 32°55' E 151°46'3 5.2
2018-Feb-14 20:00S 32°56' E 151°49'3 5.0
2018-Feb-14 19:30S 32°55' E 151°46'1 1.2
2018-Feb-14 19:00S 32°54' E 151°46'0 0.0
2018-Feb-14 18:30S 32°54' E 151°46'0 0.0
2018-Feb-14 18:00S 32°54' E 151°46'0 0.0
2018-Feb-14 17:30S 32°54' E 151°46'0 0.0
2018-Feb-14 17:00S 32°54' E 151°46'0 0.0
2018-Feb-14 16:30S 32°54' E 151°46'0 0.0
2018-Feb-14 16:00S 32°54' E 151°46'0 0.0
2018-Feb-14 15:30S 32°54' E 151°46'0 0.0
2018-Feb-14 15:00S 32°54' E 151°46'0 0.0
2018-Feb-14 14:30S 32°54' E 151°46'0 0.0
2018-Feb-14 14:00S 32°54' E 151°46'0 0.0
2018-Feb-14 13:30S 32°54' E 151°46'0 0.0
2018-Feb-14 13:00S 32°54' E 151°46'0 0.0
2018-Feb-14 12:30S 32°54' E 151°46'0 0.0
2018-Feb-14 12:00S 32°54' E 151°46'0 0.0
2018-Feb-14 11:30S 32°54' E 151°46'0 0.0
2018-Feb-14 11:00S 32°54' E 151°46'0 0.0
2018-Feb-14 10:30S 32°54' E 151°46'0 0.0
2018-Feb-14 10:00S 32°54' E 151°46'0 0.0
2018-Feb-14 09:30S 32°54' E 151°46'0 0.0
2018-Feb-14 09:00S 32°54' E 151°46'0 0.0
2018-Feb-14 08:30S 32°54' E 151°46'0 0.0
2018-Feb-14 08:00S 32°54' E 151°46'0 0.0
2018-Feb-14 07:30S 32°54' E 151°46'0 0.0
2018-Feb-14 07:00S 32°54' E 151°46'0 0.0
2018-Feb-14 06:30S 32°54' E 151°46'1 2.5
2018-Feb-14 05:58S 32°53' E 151°45'0 0.1
2018-Feb-14 05:25S 32°53' E 151°45'3 6.9
2018-Feb-14 05:00S 32°55' E 151°47'1 2.4
2018-Feb-14 04:30S 32°55' E 151°48'2 4.4
2018-Feb-14 03:58S 32°54' E 151°46'1 1.4
2018-Feb-14 03:12S 32°53' E 151°45'1 5.8
2018-Feb-14 03:00S 32°54' E 151°46'2 3.5
2018-Feb-14 02:30S 32°55' E 151°48'0 0.1
2018-Feb-14 02:00S 32°55' E 151°48'3 5.6
2018-Feb-14 01:30S 32°53' E 151°45'1 0.9
2018-Feb-14 00:29S 32°54' E 151°46'3 5.6
2018-Feb-14 00:01S 32°55' E 151°49'2 4.0
2018-Feb-13 23:30S 32°55' E 151°46'0 0.6
2018-Feb-13 23:00S 32°54' E 151°46'3 6.2
2018-Feb-13 22:30S 32°56' E 151°49'3 5.3
2018-Feb-13 22:00S 32°55' E 151°47'1 2.1
2018-Feb-13 21:29S 32°54' E 151°46'2 5.0
2018-Feb-13 21:01S 32°55' E 151°49'0 0.6
2018-Feb-13 20:30S 32°55' E 151°49'2 4.0
2018-Feb-13 19:58S 32°54' E 151°46'0 0.2
2018-Feb-13 19:28S 32°54' E 151°46'0 0.0
2018-Feb-13 18:58S 32°54' E 151°46'0 0.0
2018-Feb-13 18:28S 32°54' E 151°46'0 0.0
2018-Feb-13 17:58S 32°54' E 151°46'0 0.0
2018-Feb-13 17:28S 32°54' E 151°46'0 0.0
2018-Feb-13 16:58S 32°54' E 151°46'0 0.0
2018-Feb-13 16:28S 32°54' E 151°46'0 0.0
2018-Feb-13 15:58S 32°54' E 151°46'0 0.0
2018-Feb-13 15:28S 32°54' E 151°46'0 0.0
2018-Feb-13 14:58S 32°54' E 151°46'0 0.0
2018-Feb-13 14:28S 32°54' E 151°46'0 0.0
2018-Feb-13 13:58S 32°54' E 151°46'0 0.0
2018-Feb-13 13:28S 32°54' E 151°46'0 0.0
2018-Feb-13 12:58S 32°54' E 151°46'0 0.0
2018-Feb-13 12:28S 32°54' E 151°46'0 0.0
2018-Feb-13 11:58S 32°54' E 151°46'0 0.0
2018-Feb-13 11:28S 32°54' E 151°46'0 0.0
2018-Feb-13 10:58S 32°54' E 151°46'0 0.0
2018-Feb-13 10:28S 32°54' E 151°46'0 0.0
2018-Feb-13 09:58S 32°54' E 151°46'0 0.0
2018-Feb-13 09:25S 32°54' E 151°46'0 0.0
2018-Feb-13 08:58S 32°54' E 151°46'0 0.0
2018-Feb-13 08:28S 32°54' E 151°46'0 0.0
2018-Feb-13 07:58S 32°54' E 151°46'0 0.0
2018-Feb-13 07:28S 32°54' E 151°46'0 0.0
2018-Feb-13 06:58S 32°54' E 151°46'0 0.0
2018-Feb-13 06:28S 32°54' E 151°46'1 2.7
2018-Feb-13 06:00S 32°55' E 151°47'1 2.9
2018-Feb-13 05:30S 32°55' E 151°48'3 5.2
2018-Feb-13 05:00S 32°53' E 151°46'  
Track history (hours):
 
Tides and Currents Weather Stations Pressure Air Temp Water Temp Dewpoint Dewpoint Depression Visibility Wind Speed Wind Dir Waves Ship Positions

David Allan

Last reported at 2018-Feb-23 05:00 UTC. Time now 2018-Feb-23 05:00 UTC.
Position S 32°56' E 151°49'.

Length 70 m.

Type: Dredging. MMSI: 503541000.

Date/timePositionNaut miles runAvg speedWind from/ knotsBaromVisibWave heightAir tempDewpointWater temp
2018-Feb-23 05:00S 32°56' E 151°49'1 2.6
2018-Feb-23 04:30S 32°55' E 151°47'2 4.6
2018-Feb-23 03:59S 32°53' E 151°46'2 3.3
2018-Feb-23 03:30S 32°55' E 151°46'2 4.7
2018-Feb-23 03:00S 32°56' E 151°49'1 2.1
2018-Feb-23 02:30S 32°55' E 151°48'3 4.4
2018-Feb-23 01:56S 32°53' E 151°46'2 3.9
2018-Feb-23 01:30S 32°55' E 151°46'3 5.2
2018-Feb-23 01:00S 32°56' E 151°49'3 6.0
2018-Feb-23 00:30S 32°54' E 151°46'1 1.2
2018-Feb-22 23:57S 32°54' E 151°46'3 6.5
2018-Feb-22 23:30S 32°55' E 151°49'1 2.7
2018-Feb-22 22:59S 32°55' E 151°47'3 4.9
2018-Feb-22 22:28S 32°53' E 151°45'1 1.9
2018-Feb-22 21:55S 32°54' E 151°46'1 3.3
2018-Feb-22 21:30S 32°55' E 151°47'1 3.0
2018-Feb-22 21:00S 32°55' E 151°49'2 4.3
2018-Feb-22 20:29S 32°54' E 151°46'0 0.0
2018-Feb-22 19:59S 32°54' E 151°46'0 0.0
2018-Feb-22 19:29S 32°54' E 151°46'0 0.0
2018-Feb-22 18:59S 32°54' E 151°46'0 0.0
2018-Feb-22 18:29S 32°54' E 151°46'0 0.0
2018-Feb-22 17:59S 32°54' E 151°46'0 0.0
2018-Feb-22 17:29S 32°54' E 151°46'0 0.0
2018-Feb-22 16:59S 32°54' E 151°46'0 0.0
2018-Feb-22 16:29S 32°54' E 151°46'0 0.0
2018-Feb-22 15:59S 32°54' E 151°46'0 0.0
2018-Feb-22 15:29S 32°54' E 151°46'0 0.0
2018-Feb-22 14:59S 32°54' E 151°46'0 0.0
2018-Feb-22 14:29S 32°54' E 151°46'0 0.0
2018-Feb-22 13:59S 32°54' E 151°46'0 0.0
2018-Feb-22 13:29S 32°54' E 151°46'0 0.0
2018-Feb-22 12:59S 32°54' E 151°46'0 0.0
2018-Feb-22 12:29S 32°54' E 151°46'0 0.0
2018-Feb-22 11:59S 32°54' E 151°46'0 0.0
2018-Feb-22 11:29S 32°54' E 151°46'0 0.0
2018-Feb-22 10:59S 32°54' E 151°46'0 0.0
2018-Feb-22 10:29S 32°54' E 151°46'0 0.0
2018-Feb-22 09:59S 32°54' E 151°46'0 0.0
2018-Feb-22 09:20S 32°54' E 151°46'0 0.0
2018-Feb-22 08:59S 32°54' E 151°46'0 0.0
2018-Feb-22 08:29S 32°54' E 151°46'0 0.0
2018-Feb-22 07:59S 32°54' E 151°46'0 0.0
2018-Feb-22 07:23S 32°54' E 151°46'0 0.0
2018-Feb-22 06:59S 32°54' E 151°46'0 0.0
2018-Feb-22 06:29S 32°54' E 151°46'1 1.7
2018-Feb-22 05:59S 32°53' E 151°46'2 4.0
2018-Feb-22 05:29S 32°55' E 151°47'1 2.8
2018-Feb-22 05:00S 32°55' E 151°48'0 0.5
2018-Feb-22 04:30S 32°55' E 151°48'3 4.5
2018-Feb-22 03:53S 32°53' E 151°46'1 2.5
2018-Feb-22 03:30S 32°54' E 151°46'3 6.6
2018-Feb-22 03:00S 32°56' E 151°49'2 3.6
2018-Feb-22 02:29S 32°55' E 151°47'2 3.6
2018-Feb-22 02:00S 32°56' E 151°49'3 6.0
2018-Feb-22 01:30S 32°54' E 151°46'0 0.6
2018-Feb-22 00:52S 32°54' E 151°46'2 6.9
2018-Feb-22 00:30S 32°55' E 151°49'1 1.8
2018-Feb-22 00:00S 32°55' E 151°48'2 4.6
2018-Feb-21 23:29S 32°53' E 151°46'1 2.2
2018-Feb-21 22:52S 32°55' E 151°46'2 5.6
2018-Feb-21 22:30S 32°55' E 151°49'1 1.6
2018-Feb-21 22:00S 32°55' E 151°48'2 4.8
2018-Feb-21 21:29S 32°53' E 151°46'2 4.4
2018-Feb-21 21:00S 32°55' E 151°47'2 4.3
2018-Feb-21 20:30S 32°56' E 151°49'3 5.6
2018-Feb-21 20:00S 32°54' E 151°46'0 0.4
2018-Feb-21 19:29S 32°54' E 151°46'0 0.0
2018-Feb-21 18:59S 32°54' E 151°46'0 0.0
2018-Feb-21 18:29S 32°54' E 151°46'0 0.0
2018-Feb-21 17:59S 32°54' E 151°46'0 0.0
2018-Feb-21 17:29S 32°54' E 151°46'0 0.0
2018-Feb-21 16:59S 32°54' E 151°46'0 0.0
2018-Feb-21 16:29S 32°54' E 151°46'0 0.0
2018-Feb-21 15:59S 32°54' E 151°46'0 0.0
2018-Feb-21 15:29S 32°54' E 151°46'0 0.0
2018-Feb-21 14:59S 32°54' E 151°46'0 0.0
2018-Feb-21 14:29S 32°54' E 151°46'0 0.0
2018-Feb-21 13:59S 32°54' E 151°46'0 0.0
2018-Feb-21 13:26S 32°54' E 151°46'0 0.0
2018-Feb-21 12:59S 32°54' E 151°46'0 0.0
2018-Feb-21 12:29S 32°54' E 151°46'0 0.0
2018-Feb-21 11:59S 32°54' E 151°46'0 0.0
2018-Feb-21 11:29S 32°54' E 151°46'0 0.0
2018-Feb-21 10:59S 32°54' E 151°46'0 0.0
2018-Feb-21 10:29S 32°54' E 151°46'0 0.0
2018-Feb-21 09:59S 32°54' E 151°46'0 0.0
2018-Feb-21 09:29S 32°54' E 151°46'0 0.0
2018-Feb-21 08:59S 32°54' E 151°46'0 0.0
2018-Feb-21 08:29S 32°54' E 151°46'0 0.0
2018-Feb-21 07:56S 32°54' E 151°46'0 0.0
2018-Feb-21 07:26S 32°54' E 151°46'0 0.0
2018-Feb-21 06:59S 32°54' E 151°46'0 0.0
2018-Feb-21 06:29S 32°54' E 151°46'1 1.6
2018-Feb-21 06:00S 32°55' E 151°46'2 5.0
2018-Feb-21 05:30S 32°56' E 151°49'2 4.9
2018-Feb-21 05:00S 32°55' E 151°46'2 3.8
2018-Feb-21 04:27S 32°53' E 151°45'2 3.9
2018-Feb-21 04:00S 32°55' E 151°46'2 4.1
2018-Feb-21 03:30S 32°55' E 151°49'1 2.4
2018-Feb-21 02:58S 32°55' E 151°47'2 3.3
2018-Feb-21 02:30S 32°54' E 151°46'1 2.5
2018-Feb-21 02:00S 32°53' E 151°45'3 6.2
2018-Feb-21 01:30S 32°55' E 151°48'1 2.6
2018-Feb-21 01:00S 32°56' E 151°49'2 4.0
2018-Feb-21 00:30S 32°55' E 151°47'3 5.1
2018-Feb-20 23:59S 32°53' E 151°45'1 1.9
2018-Feb-20 23:25S 32°54' E 151°46'0 0.0
2018-Feb-20 22:58S 32°54' E 151°46'0 0.0
2018-Feb-20 22:28S 32°54' E 151°46'1 2.7
2018-Feb-20 22:00S 32°53' E 151°45'3 6.4
2018-Feb-20 21:29S 32°55' E 151°48'0 0.7
2018-Feb-20 21:00S 32°55' E 151°48'3 5.4
2018-Feb-20 20:29S 32°53' E 151°45'0 0.3
2018-Feb-20 19:59S 32°53' E 151°46'1 2.2
2018-Feb-20 19:30S 32°54' E 151°46'0 0.0
2018-Feb-20 19:00S 32°54' E 151°46'0 0.0
2018-Feb-20 18:27S 32°54' E 151°46'0 0.0
2018-Feb-20 18:00S 32°54' E 151°46'0 0.0
2018-Feb-20 17:30S 32°54' E 151°46'0 0.0
2018-Feb-20 17:00S 32°54' E 151°46'0 0.0
2018-Feb-20 16:30S 32°54' E 151°46'0 0.0
2018-Feb-20 16:00S 32°54' E 151°46'0 0.0
2018-Feb-20 15:27S 32°54' E 151°46'0 0.0
2018-Feb-20 15:00S 32°54' E 151°46'0 0.0
2018-Feb-20 14:30S 32°54' E 151°46'0 0.0
2018-Feb-20 14:00S 32°54' E 151°46'0 0.0
2018-Feb-20 13:30S 32°54' E 151°46'0 0.0
2018-Feb-20 13:00S 32°54' E 151°46'0 0.0
2018-Feb-20 12:27S 32°54' E 151°46'0 0.0
2018-Feb-20 12:00S 32°54' E 151°46'0 0.0
2018-Feb-20 11:30S 32°54' E 151°46'0 0.0
2018-Feb-20 10:57S 32°54' E 151°46'0 0.0
2018-Feb-20 10:27S 32°54' E 151°46'0 0.0
2018-Feb-20 10:00S 32°54' E 151°46'0 0.0
2018-Feb-20 09:21S 32°54' E 151°46'0 0.0
2018-Feb-20 09:00S 32°54' E 151°46'0 0.0
2018-Feb-20 08:27S 32°54' E 151°46'0 0.0
2018-Feb-20 07:57S 32°54' E 151°46'0 0.0
2018-Feb-20 07:27S 32°54' E 151°46'0 0.0
2018-Feb-20 07:00S 32°54' E 151°46'0 0.0
2018-Feb-20 06:30S 32°54' E 151°46'0 0.5
2018-Feb-20 06:00S 32°54' E 151°46'1 0.1
2018-Feb-19 21:43S 32°53' E 151°46'1 2.3
2018-Feb-19 21:23S 32°54' E 151°46'0 0.0
2018-Feb-19 20:59S 32°54' E 151°46'0 0.0
2018-Feb-19 20:29S 32°54' E 151°46'0 0.0
2018-Feb-19 19:56S 32°54' E 151°46'0 0.0
2018-Feb-19 19:29S 32°54' E 151°46'0 0.0
2018-Feb-19 18:59S 32°54' E 151°46'0 0.0
2018-Feb-19 18:29S 32°54' E 151°46'0 0.0
2018-Feb-19 17:59S 32°54' E 151°46'0 0.0
2018-Feb-19 17:26S 32°54' E 151°46'0 0.0
2018-Feb-19 16:59S 32°54' E 151°46'0 0.0
2018-Feb-19 16:29S 32°54' E 151°46'0 0.0
2018-Feb-19 15:59S 32°54' E 151°46'0 0.0
2018-Feb-19 15:23S 32°54' E 151°46'0 0.0
2018-Feb-19 14:59S 32°54' E 151°46'0 0.0
2018-Feb-19 14:29S 32°54' E 151°46'0 0.0
2018-Feb-19 13:59S 32°54' E 151°46'0 0.0
2018-Feb-19 13:29S 32°54' E 151°46'0 0.0
2018-Feb-19 12:59S 32°54' E 151°46'0 0.0
2018-Feb-19 12:26S 32°54' E 151°46'0 0.0
2018-Feb-19 11:59S 32°54' E 151°46'0 0.0
2018-Feb-19 11:29S 32°54' E 151°46'0 0.0
2018-Feb-19 10:56S 32°54' E 151°46'0 0.0
2018-Feb-19 10:29S 32°54' E 151°46'0 0.0
2018-Feb-19 09:59S 32°54' E 151°46'0 0.0
2018-Feb-19 09:26S 32°54' E 151°46'0 0.0
2018-Feb-19 08:59S 32°54' E 151°46'0 0.0
2018-Feb-19 08:23S 32°54' E 151°46'0 0.0
2018-Feb-19 07:59S 32°54' E 151°46'0 0.0
2018-Feb-19 07:23S 32°54' E 151°46'0 0.0
2018-Feb-19 06:59S 32°54' E 151°46'0 0.0
2018-Feb-19 06:29S 32°54' E 151°46'2 4.7
2018-Feb-19 06:00S 32°55' E 151°49'1 2.2
2018-Feb-19 05:30S 32°55' E 151°47'3 3.4
2018-Feb-19 04:39S 32°53' E 151°45'1 7.8
2018-Feb-19 04:30S 32°54' E 151°46'3 6.4
2018-Feb-19 04:00S 32°56' E 151°49'2 4.8
2018-Feb-19 03:30S 32°55' E 151°47'2 4.5
2018-Feb-19 03:00S 32°53' E 151°45'0 0.1
2018-Feb-19 02:14S 32°53' E 151°45'2 7.4
2018-Feb-19 02:00S 32°55' E 151°46'3 6.1
2018-Feb-19 01:30S 32°56' E 151°49'3 5.5
2018-Feb-19 01:00S 32°55' E 151°47'1 1.1
2018-Feb-18 23:44S 32°54' E 151°46'1 6.3
2018-Feb-18 23:30S 32°55' E 151°46'3 5.2
2018-Feb-18 23:01S 32°56' E 151°49'2 4.9
2018-Feb-18 22:31S 32°55' E 151°47'2 4.5
2018-Feb-18 22:00S 32°53' E 151°45'3 5.6
2018-Feb-18 21:30S 32°55' E 151°47'2 4.4
2018-Feb-18 21:00S 32°56' E 151°49'3 6.4
2018-Feb-18 20:30S 32°54' E 151°46'1 1.4
2018-Feb-18 19:37S 32°53' E 151°46'1 6.6
2018-Feb-18 19:29S 32°54' E 151°46'0 0.1
2018-Feb-18 18:59S 32°54' E 151°46'0 0.0
2018-Feb-18 18:29S 32°54' E 151°46'0 0.0
2018-Feb-18 17:59S 32°54' E 151°46'0 0.0
2018-Feb-18 17:29S 32°54' E 151°46'0 0.0
2018-Feb-18 16:59S 32°54' E 151°46'0 0.0
2018-Feb-18 16:29S 32°54' E 151°46'0 0.0
2018-Feb-18 15:50S 32°54' E 151°46'0 0.0
2018-Feb-18 15:26S 32°54' E 151°46'0 0.0
2018-Feb-18 14:59S 32°54' E 151°46'0 0.0
2018-Feb-18 14:29S 32°54' E 151°46'0 0.0
2018-Feb-18 13:56S 32°54' E 151°46'0 0.0
2018-Feb-18 13:29S 32°54' E 151°46'0 0.0
2018-Feb-18 12:50S 32°54' E 151°46'0 0.0
2018-Feb-18 12:29S 32°54' E 151°46'0 0.0
2018-Feb-18 11:59S 32°54' E 151°46'0 0.0
2018-Feb-18 11:26S 32°54' E 151°46'0 0.0
2018-Feb-18 10:59S 32°54' E 151°46'0 0.0
2018-Feb-18 10:29S 32°54' E 151°46'0 0.0
2018-Feb-18 09:56S 32°54' E 151°46'0 0.0
2018-Feb-18 09:29S 32°54' E 151°46'0 0.0
2018-Feb-18 08:59S 32°54' E 151°46'0 0.0
2018-Feb-18 08:29S 32°54' E 151°46'0 0.0
2018-Feb-18 07:59S 32°54' E 151°46'0 0.0
2018-Feb-18 07:29S 32°54' E 151°46'0 0.0
2018-Feb-18 06:59S 32°54' E 151°46'1 2.8
2018-Feb-18 06:30S 32°55' E 151°47'2 3.0
2018-Feb-18 06:00S 32°55' E 151°49'3 5.9
2018-Feb-18 05:30S 32°53' E 151°46'0 0.3
2018-Feb-18 05:00S 32°53' E 151°46'2 3.9
2018-Feb-18 04:30S 32°55' E 151°48'2 3.9
2018-Feb-18 04:00S 32°56' E 151°49'3 6.2
2018-Feb-18 03:30S 32°54' E 151°46'2 3.0
2018-Feb-18 02:59S 32°53' E 151°45'3 6.1
2018-Feb-18 02:30S 32°55' E 151°48'0 0.8
2018-Feb-18 02:00S 32°55' E 151°48'3 4.6
2018-Feb-18 01:22S 32°53' E 151°45'1 2.3
2018-Feb-18 01:00S 32°54' E 151°46'3 6.4
2018-Feb-18 00:30S 32°56' E 151°49'2 3.5
2018-Feb-18 00:00S 32°55' E 151°47'3 5.4
2018-Feb-17 23:30S 32°53' E 151°45'1 1.6
2018-Feb-17 22:52S 32°54' E 151°46'2 6.2
2018-Feb-17 22:30S 32°55' E 151°48'1 1.1
2018-Feb-17 22:00S 32°55' E 151°48'3 4.0
2018-Feb-17 21:18S 32°53' E 151°45'2 6.9
2018-Feb-17 21:01S 32°55' E 151°46'2 4.8
2018-Feb-17 20:31S 32°56' E 151°49'3 5.4
2018-Feb-17 19:58S 32°54' E 151°46'0 0.0
2018-Feb-17 19:28S 32°54' E 151°46'0 0.0
2018-Feb-17 18:58S 32°54' E 151°46'0 0.0
2018-Feb-17 18:28S 32°54' E 151°46'0 0.0
2018-Feb-17 17:58S 32°54' E 151°46'0 0.0
2018-Feb-17 17:28S 32°54' E 151°46'0 0.0
2018-Feb-17 16:58S 32°54' E 151°46'0 0.0
2018-Feb-17 16:28S 32°54' E 151°46'0 0.0
2018-Feb-17 15:58S 32°54' E 151°46'0 0.0
2018-Feb-17 15:28S 32°54' E 151°46'0 0.0
2018-Feb-17 14:58S 32°54' E 151°46'0 0.0
2018-Feb-17 14:28S 32°54' E 151°46'0 0.0
2018-Feb-17 13:58S 32°54' E 151°46'0 0.0
2018-Feb-17 13:28S 32°54' E 151°46'0 0.0
2018-Feb-17 12:58S 32°54' E 151°46'0 0.0
2018-Feb-17 12:28S 32°54' E 151°46'0 0.0
2018-Feb-17 11:58S 32°54' E 151°46'0 0.0
2018-Feb-17 11:28S 32°54' E 151°46'0 0.0
2018-Feb-17 10:58S 32°54' E 151°46'0 0.0
2018-Feb-17 10:28S 32°54' E 151°46'0 0.0
2018-Feb-17 09:58S 32°54' E 151°46'0 0.0
2018-Feb-17 09:28S 32°54' E 151°46'0 0.0
2018-Feb-17 08:58S 32°54' E 151°46'0 0.0
2018-Feb-17 08:28S 32°54' E 151°46'0 0.0
2018-Feb-17 07:58S 32°54' E 151°46'0 0.0
2018-Feb-17 07:28S 32°54' E 151°46'0 0.0
2018-Feb-17 06:58S 32°54' E 151°46'0 0.0
2018-Feb-17 06:28S 32°54' E 151°46'0 1.0
2018-Feb-17 06:00S 32°54' E 151°46'1 1.6
2018-Feb-17 05:26S 32°53' E 151°45'1 2.7
2018-Feb-17 04:59S 32°54' E 151°46'3 5.5
2018-Feb-17 04:30S 32°56' E 151°49'1 1.7
2018-Feb-17 04:00S 32°55' E 151°48'3 5.5
2018-Feb-17 03:29S 32°53' E 151°45'1 2.5
2018-Feb-17 03:00S 32°54' E 151°46'3 6.1
2018-Feb-17 02:30S 32°56' E 151°49'2 4.7
2018-Feb-17 02:00S 32°55' E 151°47'2 3.9
2018-Feb-17 01:26S 32°53' E 151°45'2 4.1
2018-Feb-17 01:00S 32°55' E 151°46'3 5.9
2018-Feb-17 00:30S 32°56' E 151°49'3 5.7
2018-Feb-17 00:00S 32°55' E 151°46'1 2.7
2018-Feb-16 23:30S 32°53' E 151°46'1 1.1
2018-Feb-16 22:59S 32°54' E 151°46'3 6.3
2018-Feb-16 22:31S 32°56' E 151°49'2 4.3
2018-Feb-16 22:01S 32°55' E 151°47'1 1.2
2018-Feb-16 21:28S 32°55' E 151°47'2 3.4
2018-Feb-16 21:00S 32°56' E 151°49'3 5.4
2018-Feb-16 20:30S 32°54' E 151°46'1 2.8
2018-Feb-16 20:00S 32°53' E 151°45'1 2.6
2018-Feb-16 19:30S 32°54' E 151°46'0 0.0
2018-Feb-16 18:54S 32°54' E 151°46'0 0.0
2018-Feb-16 18:27S 32°54' E 151°46'0 0.0
2018-Feb-16 18:00S 32°54' E 151°46'0 0.0
2018-Feb-16 17:24S 32°54' E 151°46'0 0.0
2018-Feb-16 16:57S 32°54' E 151°46'0 0.0
2018-Feb-16 16:24S 32°54' E 151°46'0 0.0
2018-Feb-16 16:00S 32°54' E 151°46'0 0.0
2018-Feb-16 15:30S 32°54' E 151°46'0 0.0
2018-Feb-16 15:00S 32°54' E 151°46'0 0.0
2018-Feb-16 14:30S 32°54' E 151°46'0 0.0
2018-Feb-16 14:00S 32°54' E 151°46'0 0.0
2018-Feb-16 13:30S 32°54' E 151°46'0 0.0
2018-Feb-16 13:00S 32°54' E 151°46'0 0.0
2018-Feb-16 12:30S 32°54' E 151°46'0 0.0
2018-Feb-16 12:00S 32°54' E 151°46'0 0.0
2018-Feb-16 11:30S 32°54' E 151°46'0 0.0
2018-Feb-16 11:00S 32°54' E 151°46'0 0.0
2018-Feb-16 10:24S 32°54' E 151°46'0 0.0
2018-Feb-16 10:00S 32°54' E 151°46'0 0.0
2018-Feb-16 09:27S 32°54' E 151°46'0 0.0
2018-Feb-16 08:42S 32°54' E 151°46'0 0.0
2018-Feb-16 08:30S 32°54' E 151°46'0 0.0
2018-Feb-16 08:00S 32°54' E 151°46'0 0.0
2018-Feb-16 07:30S 32°54' E 151°46'0 0.0
2018-Feb-16 07:00S 32°54' E 151°46'0 0.1
2018-Feb-16 06:30S 32°54' E 151°46'3 6.0
2018-Feb-16 06:00S 32°56' E 151°49'3 5.2
2018-Feb-16 05:30S 32°55' E 151°46'1 1.4
2018-Feb-16 04:51S 32°54' E 151°46'2 5.8
2018-Feb-16 04:30S 32°55' E 151°48'0 1.0
2018-Feb-16 04:00S 32°55' E 151°48'3 4.1
2018-Feb-16 03:23S 32°53' E 151°46'1 3.2
2018-Feb-16 02:59S 32°54' E 151°46'2 4.1
2018-Feb-16 02:29S 32°55' E 151°49'1 1.5
2018-Feb-16 02:00S 32°55' E 151°48'2 4.5
2018-Feb-16 01:30S 32°53' E 151°46'0 0.3
2018-Feb-16 01:01S 32°53' E 151°46'2 3.9
2018-Feb-16 00:30S 32°55' E 151°47'2 3.2
2018-Feb-16 00:00S 32°55' E 151°49'2 3.7
2018-Feb-15 23:20S 32°54' E 151°46'2 4.7
2018-Feb-15 23:00S 32°55' E 151°48'0 0.4
2018-Feb-15 22:29S 32°55' E 151°48'1 2.8
2018-Feb-15 21:58S 32°54' E 151°46'1 3.0
2018-Feb-15 21:30S 32°55' E 151°47'1 1.4
2018-Feb-15 21:00S 32°55' E 151°48'3 5.5
2018-Feb-15 20:30S 32°53' E 151°46'1 1.1
2018-Feb-15 20:00S 32°54' E 151°46'0 0.9
2018-Feb-15 19:28S 32°54' E 151°46'0 0.0
2018-Feb-15 18:58S 32°54' E 151°46'0 0.0
2018-Feb-15 18:28S 32°54' E 151°46'0 0.0
2018-Feb-15 17:58S 32°54' E 151°46'0 0.0
2018-Feb-15 17:28S 32°54' E 151°46'0 0.0
2018-Feb-15 16:58S 32°54' E 151°46'0 0.0
2018-Feb-15 16:28S 32°54' E 151°46'0 0.0
2018-Feb-15 15:58S 32°54' E 151°46'0 0.0
2018-Feb-15 15:28S 32°54' E 151°46'0 0.0
2018-Feb-15 14:58S 32°54' E 151°46'0 0.0
2018-Feb-15 14:28S 32°54' E 151°46'0 0.0
2018-Feb-15 13:58S 32°54' E 151°46'0 0.0
2018-Feb-15 13:28S 32°54' E 151°46'0 0.0
2018-Feb-15 12:55S 32°54' E 151°46'0 0.0
2018-Feb-15 12:28S 32°54' E 151°46'0 0.0
2018-Feb-15 11:52S 32°54' E 151°46'0 0.0
2018-Feb-15 11:28S 32°54' E 151°46'0 0.0
2018-Feb-15 10:58S 32°54' E 151°46'0 0.0
2018-Feb-15 10:25S 32°54' E 151°46'0 0.0
2018-Feb-15 09:58S 32°54' E 151°46'0 0.0
2018-Feb-15 09:28S 32°54' E 151°46'0 0.0
2018-Feb-15 08:58S 32°54' E 151°46'0 0.0
2018-Feb-15 08:28S 32°54' E 151°46'0 0.0
2018-Feb-15 07:58S 32°54' E 151°46'0 0.0
2018-Feb-15 07:28S 32°54' E 151°46'0 0.0
2018-Feb-15 06:58S 32°54' E 151°46'0 0.0
2018-Feb-15 06:29S 32°54' E 151°46'1 0.2
2018-Feb-15 01:23S 32°55' E 151°46'0 0.0
2018-Feb-14 20:53S 32°55' E 151°46'0 0.2
2018-Feb-14 20:30S 32°55' E 151°46'3 5.2
2018-Feb-14 20:00S 32°56' E 151°49'3 5.0
2018-Feb-14 19:30S 32°55' E 151°46'1 1.2
2018-Feb-14 19:00S 32°54' E 151°46'0 0.0
2018-Feb-14 18:30S 32°54' E 151°46'0 0.0
2018-Feb-14 18:00S 32°54' E 151°46'0 0.0
2018-Feb-14 17:30S 32°54' E 151°46'0 0.0
2018-Feb-14 17:00S 32°54' E 151°46'0 0.0
2018-Feb-14 16:30S 32°54' E 151°46'0 0.0
2018-Feb-14 16:00S 32°54' E 151°46'0 0.0
2018-Feb-14 15:30S 32°54' E 151°46'0 0.0
2018-Feb-14 15:00S 32°54' E 151°46'0 0.0
2018-Feb-14 14:30S 32°54' E 151°46'0 0.0
2018-Feb-14 14:00S 32°54' E 151°46'0 0.0
2018-Feb-14 13:30S 32°54' E 151°46'0 0.0
2018-Feb-14 13:00S 32°54' E 151°46'0 0.0
2018-Feb-14 12:30S 32°54' E 151°46'0 0.0
2018-Feb-14 12:00S 32°54' E 151°46'0 0.0
2018-Feb-14 11:30S 32°54' E 151°46'0 0.0
2018-Feb-14 11:00S 32°54' E 151°46'0 0.0
2018-Feb-14 10:30S 32°54' E 151°46'0 0.0
2018-Feb-14 10:00S 32°54' E 151°46'0 0.0
2018-Feb-14 09:30S 32°54' E 151°46'0 0.0
2018-Feb-14 09:00S 32°54' E 151°46'0 0.0
2018-Feb-14 08:30S 32°54' E 151°46'0 0.0
2018-Feb-14 08:00S 32°54' E 151°46'0 0.0
2018-Feb-14 07:30S 32°54' E 151°46'0 0.0
2018-Feb-14 07:00S 32°54' E 151°46'0 0.0
2018-Feb-14 06:30S 32°54' E 151°46'1 2.5
2018-Feb-14 05:58S 32°53' E 151°45'0 0.1
2018-Feb-14 05:25S 32°53' E 151°45'3 6.9
2018-Feb-14 05:00S 32°55' E 151°47'1 2.4
2018-Feb-14 04:30S 32°55' E 151°48'2 4.4
2018-Feb-14 03:58S 32°54' E 151°46'1 1.4
2018-Feb-14 03:12S 32°53' E 151°45'1 5.8
2018-Feb-14 03:00S 32°54' E 151°46'2 3.5
2018-Feb-14 02:30S 32°55' E 151°48'0 0.1
2018-Feb-14 02:00S 32°55' E 151°48'3 5.6
2018-Feb-14 01:30S 32°53' E 151°45'1 0.9
2018-Feb-14 00:29S 32°54' E 151°46'3 5.6
2018-Feb-14 00:01S 32°55' E 151°49'2 4.0
2018-Feb-13 23:30S 32°55' E 151°46'0 0.6
2018-Feb-13 23:00S 32°54' E 151°46'3 6.2
2018-Feb-13 22:30S 32°56' E 151°49'3 5.3
2018-Feb-13 22:00S 32°55' E 151°47'1 2.1
2018-Feb-13 21:29S 32°54' E 151°46'2 5.0
2018-Feb-13 21:01S 32°55' E 151°49'0 0.6
2018-Feb-13 20:30S 32°55' E 151°49'2 4.0
2018-Feb-13 19:58S 32°54' E 151°46'0 0.2
2018-Feb-13 19:28S 32°54' E 151°46'0 0.0
2018-Feb-13 18:58S 32°54' E 151°46'0 0.0
2018-Feb-13 18:28S 32°54' E 151°46'0 0.0
2018-Feb-13 17:58S 32°54' E 151°46'0 0.0
2018-Feb-13 17:28S 32°54' E 151°46'0 0.0
2018-Feb-13 16:58S 32°54' E 151°46'0 0.0
2018-Feb-13 16:28S 32°54' E 151°46'0 0.0
2018-Feb-13 15:58S 32°54' E 151°46'0 0.0
2018-Feb-13 15:28S 32°54' E 151°46'0 0.0
2018-Feb-13 14:58S 32°54' E 151°46'0 0.0
2018-Feb-13 14:28S 32°54' E 151°46'0 0.0
2018-Feb-13 13:58S 32°54' E 151°46'0 0.0
2018-Feb-13 13:28S 32°54' E 151°46'0 0.0
2018-Feb-13 12:58S 32°54' E 151°46'0 0.0
2018-Feb-13 12:28S 32°54' E 151°46'0 0.0
2018-Feb-13 11:58S 32°54' E 151°46'0 0.0
2018-Feb-13 11:28S 32°54' E 151°46'0 0.0
2018-Feb-13 10:58S 32°54' E 151°46'0 0.0
2018-Feb-13 10:28S 32°54' E 151°46'0 0.0
2018-Feb-13 09:58S 32°54' E 151°46'0 0.0
2018-Feb-13 09:25S 32°54' E 151°46'0 0.0
2018-Feb-13 08:58S 32°54' E 151°46'0 0.0
2018-Feb-13 08:28S 32°54' E 151°46'0 0.0
2018-Feb-13 07:58S 32°54' E 151°46'0 0.0
2018-Feb-13 07:28S 32°54' E 151°46'0 0.0
2018-Feb-13 06:58S 32°54' E 151°46'0 0.0
2018-Feb-13 06:28S 32°54' E 151°46'1 2.7
2018-Feb-13 06:00S 32°55' E 151°47'1 2.9
2018-Feb-13 05:30S 32°55' E 151°48'3 5.2
2018-Feb-13 05:00S 32°53' E 151°46'  

Dump ship's entire track history